Aérodrome :
LOGIN :

S'inscrire | Disclaimer

   EN    FR    IT 

 










Légende :    VFR   VFR Marginal   IFR   IFR Intensif   IFR Très Intensif
Visi : 
Plafond : 
>= 8 km
>= 3000ft
5 à 8 km
1000 à 3000 ft
1500m à 5 km
500 à 1000 ft
800 à 1500m
200 à 500 ft
< 800m
< 200 ft
Symboles :   Orages  Brouillard  Fortes neiges  Fortes précipitations  Vent > 20 kt
SIGMETs :   Divers  Orages  Givrage  Turbulence  Onde Orograph.  Cendres Volcan.






- Altitude de l'aérodrome : 84 ft


LFBC - Cazaux

DERNIER METAR :
  • 281200Z AUTO 26012KT 220V280 9999 // NSC 13/09 Q1017

METARs EXPIRÉS :
  • 281130Z AUTO 26012KT 9999 // FEW019/// BKN056/// BKN072/// ///CB 12/09 Q1017
  • 281100Z AUTO 27015G26KT 250V310 9000 // FEW019/// BKN038/// BKN047/// ///TCU 11/08 Q1018
  • 281030Z AUTO 26013KT 9999 // BKN039 BKN066 13/08 Q1017
  • 281000Z AUTO 25013KT 220V280 9999 // FEW029/// OVC060/// ///TCU 12/08 Q1017
  • 280930Z AUTO 25009KT 9999 // NSC 11/08 Q1017

TAF TAF LFBC
Valide du 28 à 09h jusqu'au 29 à 09h UTC


280800Z 2809/2909 26015G25KT 9999 SCT025 BKN030 BKN060
TEMPO 2809/2816 4000 SHRA SCT010 BKN025TCU
PROB40
TEMPO 2815/2817 26020G35KT
BECMG 2822/2824 26010KT
PROB40
TEMPO 2900/2909 BKN014



MET'MAP, la Météo Aéronautique d'un coup d'oeil ! - Copyright ORBIFLY Décembre 2007 - Disclaimer

ORBIFLY MET'MAP TEAM :

Programmation & Développement : Alexandra Zaïnal
Sur une idée originale de : Baudouin d'Aumeries
Assistance à la programmation : Marc-Olivier Méhu
Soutien technique & logistique : Manuel Goepfert

Contact : metmap@orbifly.com




SOURCES & CREDITS :

   NOAA